<?xml version="1.0" encoding="UTF-8" standalone="no" ?><gpx xmlns="http://www.topografix.com/GPX/1/1" xmlns:gpxx="http://www.garmin.com/xmlschemas/GpxExtensions/v3" xmlns:wptx1="http://www.garmin.com/xmlschemas/WaypointExtension/v1" xmlns:gpxtpx="http://www.garmin.com/xmlschemas/TrackPointExtension/v1" creator="GuideVTT.com" version="1.1" xmlns:xsi="http://www.w3.org/2001/XMLSchema-instance" xsi:schemaLocation="http://www.topografix.com/GPX/1/1 http://www.topografix.com/GPX/1/1/gpx.xsd http://www.garmin.com/xmlschemas/GpxExtensions/v3 http://www8.garmin.com/xmlschemas/GpxExtensionsv3.xsd http://www.garmin.com/xmlschemas/WaypointExtension/v1 http://www8.garmin.com/xmlschemas/WaypointExtensionv1.xsd http://www.garmin.com/xmlschemas/TrackPointExtension/v1 http://www.garmin.com/xmlschemas/TrackPointExtensionv1.xsd">
<metadata><link href="http://www.garmin.com"><text>Garmin International</text></link><time>2013-06-22T15:13:50Z</time></metadata>
<trk><name>rp_sortie6.gpx</name><extensions><gpxx:TrackExtension><gpxx:DisplayColor>Cyan</gpxx:DisplayColor></gpxx:TrackExtension></extensions><trkseg>
<trkpt lat="47.40437508" lon="7.08171844"><ele></ele><time>2014-5-17T13:50:36Z</time></trkpt>
<trkpt lat="47.40443945" lon="7.08229780"><ele></ele><time>2014-5-17T13:50:39Z</time></trkpt>
<trkpt lat="47.40465403" lon="7.08259821"><ele></ele><time>2014-5-17T13:50:42Z</time></trkpt>
<trkpt lat="47.40495443" lon="7.08343506"><ele></ele><time>2014-5-17T13:50:45Z</time></trkpt>
<trkpt lat="47.40510464" lon="7.08435774"><ele></ele><time>2014-5-17T13:50:48Z</time></trkpt>
<trkpt lat="47.40514755" lon="7.08476543"><ele></ele><time>2014-5-17T13:50:51Z</time></trkpt>
<trkpt lat="47.40514755" lon="7.08588123"><ele></ele><time>2014-5-17T13:50:54Z</time></trkpt>
<trkpt lat="47.40523338" lon="7.08695412"><ele></ele><time>2014-5-17T13:50:57Z</time></trkpt>
<trkpt lat="47.40527630" lon="7.08738327"><ele></ele><time>2014-5-17T13:51:0Z</time></trkpt>
<trkpt lat="47.40544796" lon="7.08826303"><ele></ele><time>2014-5-17T13:51:3Z</time></trkpt>
<trkpt lat="47.40542650" lon="7.08837032"><ele></ele><time>2014-5-17T13:51:6Z</time></trkpt>
<trkpt lat="47.40555525" lon="7.08916426"><ele></ele><time>2014-5-17T13:51:9Z</time></trkpt>
<trkpt lat="47.40557671" lon="7.08952904"><ele></ele><time>2014-5-17T13:51:12Z</time></trkpt>
<trkpt lat="47.40564108" lon="7.08993673"><ele></ele><time>2014-5-17T13:51:15Z</time></trkpt>
<trkpt lat="47.40564108" lon="7.09032297"><ele></ele><time>2014-5-17T13:51:18Z</time></trkpt>
<trkpt lat="47.40418196" lon="7.09062338"><ele></ele><time>2014-5-17T13:51:21Z</time></trkpt>
<trkpt lat="47.40195036" lon="7.09098816"><ele></ele><time>2014-5-17T13:51:24Z</time></trkpt>
<trkpt lat="47.40175724" lon="7.09064484"><ele></ele><time>2014-5-17T13:51:27Z</time></trkpt>
<trkpt lat="47.40092039" lon="7.08948612"><ele></ele><time>2014-5-17T13:51:30Z</time></trkpt>
<trkpt lat="47.40044832" lon="7.08890676"><ele></ele><time>2014-5-17T13:51:33Z</time></trkpt>
<trkpt lat="47.39980459" lon="7.08834887"><ele></ele><time>2014-5-17T13:51:36Z</time></trkpt>
<trkpt lat="47.39920378" lon="7.08809137"><ele></ele><time>2014-5-17T13:51:39Z</time></trkpt>
<trkpt lat="47.39757299" lon="7.08751202"><ele></ele><time>2014-5-17T13:51:42Z</time></trkpt>
<trkpt lat="47.39710093" lon="7.08719015"><ele></ele><time>2014-5-17T13:51:45Z</time></trkpt>
<trkpt lat="47.39688635" lon="7.08714724"><ele></ele><time>2014-5-17T13:51:48Z</time></trkpt>
<trkpt lat="47.39594221" lon="7.08749056"><ele></ele><time>2014-5-17T13:51:51Z</time></trkpt>
<trkpt lat="47.39564180" lon="7.08781242"><ele></ele><time>2014-5-17T13:51:54Z</time></trkpt>
<trkpt lat="47.39529848" lon="7.08854198"><ele></ele><time>2014-5-17T13:51:57Z</time></trkpt>
<trkpt lat="47.39497662" lon="7.08894968"><ele></ele><time>2014-5-17T13:52:0Z</time></trkpt>
<trkpt lat="47.39456892" lon="7.08918571"><ele></ele><time>2014-5-17T13:52:3Z</time></trkpt>
<trkpt lat="47.39338875" lon="7.08950758"><ele></ele><time>2014-5-17T13:52:6Z</time></trkpt>
<trkpt lat="47.39283085" lon="7.08972216"><ele></ele><time>2014-5-17T13:52:9Z</time></trkpt>
<trkpt lat="47.39280939" lon="7.08976507"><ele></ele><time>2014-5-17T13:52:12Z</time></trkpt>
<trkpt lat="47.39223003" lon="7.09012985"><ele></ele><time>2014-5-17T13:52:15Z</time></trkpt>
<trkpt lat="47.39165068" lon="7.09100962"><ele></ele><time>2014-5-17T13:52:18Z</time></trkpt>
<trkpt lat="47.39070654" lon="7.09188938"><ele></ele><time>2014-5-17T13:52:21Z</time></trkpt>
<trkpt lat="47.39034176" lon="7.09206104"><ele></ele><time>2014-5-17T13:52:24Z</time></trkpt>
<trkpt lat="47.39006281" lon="7.09225416"><ele></ele><time>2014-5-17T13:52:27Z</time></trkpt>
<trkpt lat="47.39019156" lon="7.09229708"><ele></ele><time>2014-5-17T13:52:30Z</time></trkpt>
<trkpt lat="47.39044905" lon="7.09227562"><ele></ele><time>2014-5-17T13:52:33Z</time></trkpt>
<trkpt lat="47.39070654" lon="7.09231853"><ele></ele><time>2014-5-17T13:52:36Z</time></trkpt>
<trkpt lat="47.39120007" lon="7.09268332"><ele></ele><time>2014-5-17T13:52:39Z</time></trkpt>
<trkpt lat="47.39160776" lon="7.09279060"><ele></ele><time>2014-5-17T13:52:42Z</time></trkpt>
<trkpt lat="47.39197254" lon="7.09298372"><ele></ele><time>2014-5-17T13:52:45Z</time></trkpt>
<trkpt lat="47.39227295" lon="7.09343433"><ele></ele><time>2014-5-17T13:52:48Z</time></trkpt>
<trkpt lat="47.39246607" lon="7.09412098"><ele></ele><time>2014-5-17T13:52:51Z</time></trkpt>
<trkpt lat="47.39313126" lon="7.09538698"><ele></ele><time>2014-5-17T13:52:54Z</time></trkpt>
<trkpt lat="47.39332438" lon="7.09590197"><ele></ele><time>2014-5-17T13:52:57Z</time></trkpt>
<trkpt lat="47.39362478" lon="7.09656715"><ele></ele><time>2014-5-17T13:53:0Z</time></trkpt>
<trkpt lat="47.39394665" lon="7.09744692"><ele></ele><time>2014-5-17T13:53:3Z</time></trkpt>
<trkpt lat="47.39437580" lon="7.09832668"><ele></ele><time>2014-5-17T13:53:6Z</time></trkpt>
<trkpt lat="47.39471912" lon="7.09924936"><ele></ele><time>2014-5-17T13:53:9Z</time></trkpt>
<trkpt lat="47.39478350" lon="7.09989309"><ele></ele><time>2014-5-17T13:53:12Z</time></trkpt>
<trkpt lat="47.39456892" lon="7.10066557"><ele></ele><time>2014-5-17T13:53:15Z</time></trkpt>
<trkpt lat="47.39456892" lon="7.10098743"><ele></ele><time>2014-5-17T13:53:18Z</time></trkpt>
<trkpt lat="47.39480495" lon="7.10261822"><ele></ele><time>2014-5-17T13:53:21Z</time></trkpt>
<trkpt lat="47.39469767" lon="7.10266113"><ele></ele><time>2014-5-17T13:53:24Z</time></trkpt>
<trkpt lat="47.39452600" lon="7.10184574"><ele></ele><time>2014-5-17T13:53:27Z</time></trkpt>
<trkpt lat="47.39411831" lon="7.10068703"><ele></ele><time>2014-5-17T13:53:30Z</time></trkpt>
<trkpt lat="47.39392519" lon="7.10057974"><ele></ele><time>2014-5-17T13:53:33Z</time></trkpt>
<trkpt lat="47.39377499" lon="7.10085869"><ele></ele><time>2014-5-17T13:53:36Z</time></trkpt>
<trkpt lat="47.39358187" lon="7.10100889"><ele></ele><time>2014-5-17T13:53:39Z</time></trkpt>
<trkpt lat="47.39319563" lon="7.10103035"><ele></ele><time>2014-5-17T13:53:42Z</time></trkpt>
<trkpt lat="47.39291668" lon="7.10088015"><ele></ele><time>2014-5-17T13:53:45Z</time></trkpt>
<trkpt lat="47.39285231" lon="7.10042953"><ele></ele><time>2014-5-17T13:53:48Z</time></trkpt>
<trkpt lat="47.39283085" lon="7.09963560"><ele></ele><time>2014-5-17T13:53:51Z</time></trkpt>
<trkpt lat="47.39265919" lon="7.09946394"><ele></ele><time>2014-5-17T13:53:54Z</time></trkpt>
<trkpt lat="47.39229441" lon="7.09959269"><ele></ele><time>2014-5-17T13:53:57Z</time></trkpt>
<trkpt lat="47.39190817" lon="7.09965706"><ele></ele><time>2014-5-17T13:54:0Z</time></trkpt>
<trkpt lat="47.39143610" lon="7.09957123"><ele></ele><time>2014-5-17T13:54:3Z</time></trkpt>
<trkpt lat="47.39102840" lon="7.09826231"><ele></ele><time>2014-5-17T13:54:6Z</time></trkpt>
<trkpt lat="47.39089966" lon="7.09794044"><ele></ele><time>2014-5-17T13:54:9Z</time></trkpt>
<trkpt lat="47.39070654" lon="7.09727526"><ele></ele><time>2014-5-17T13:54:12Z</time></trkpt>
<trkpt lat="47.39047050" lon="7.09684610"><ele></ele><time>2014-5-17T13:54:15Z</time></trkpt>
<trkpt lat="47.39036322" lon="7.09656715"><ele></ele><time>2014-5-17T13:54:18Z</time></trkpt>
<trkpt lat="47.39021301" lon="7.09603071"><ele></ele><time>2014-5-17T13:54:21Z</time></trkpt>
<trkpt lat="47.38991261" lon="7.09568739"><ele></ele><time>2014-5-17T13:54:24Z</time></trkpt>
<trkpt lat="47.38986969" lon="7.09566593"><ele></ele><time>2014-5-17T13:54:27Z</time></trkpt>
<trkpt lat="47.38967657" lon="7.09564447"><ele></ele><time>2014-5-17T13:54:30Z</time></trkpt>
<trkpt lat="47.38950491" lon="7.09570885"><ele></ele><time>2014-5-17T13:54:33Z</time></trkpt>
<trkpt lat="47.38918304" lon="7.09605217"><ele></ele><time>2014-5-17T13:54:36Z</time></trkpt>
<trkpt lat="47.38892555" lon="7.09656715"><ele></ele><time>2014-5-17T13:54:39Z</time></trkpt>
<trkpt lat="47.38886118" lon="7.09712505"><ele></ele><time>2014-5-17T13:54:42Z</time></trkpt>
<trkpt lat="47.38896847" lon="7.09798336"><ele></ele><time>2014-5-17T13:54:45Z</time></trkpt>
<trkpt lat="47.38894701" lon="7.09892750"><ele></ele><time>2014-5-17T13:54:48Z</time></trkpt>
<trkpt lat="47.38879681" lon="7.09963560"><ele></ele><time>2014-5-17T13:54:51Z</time></trkpt>
<trkpt lat="47.38883972" lon="7.10034370"><ele></ele><time>2014-5-17T13:54:54Z</time></trkpt>
<trkpt lat="47.38896847" lon="7.10077286"><ele></ele><time>2014-5-17T13:54:57Z</time></trkpt>
<trkpt lat="47.38886118" lon="7.10081577"><ele></ele><time>2014-5-17T13:55:0Z</time></trkpt>
<trkpt lat="47.38856077" lon="7.10068703"><ele></ele><time>2014-5-17T13:55:3Z</time></trkpt>
<trkpt lat="47.38815308" lon="7.10019350"><ele></ele><time>2014-5-17T13:55:6Z</time></trkpt>
<trkpt lat="47.38763809" lon="7.09969997"><ele></ele><time>2014-5-17T13:55:9Z</time></trkpt>
<trkpt lat="47.38611460" lon="7.09959269"><ele></ele><time>2014-5-17T13:55:12Z</time></trkpt>
<trkpt lat="47.38330364" lon="7.09905624"><ele></ele><time>2014-5-17T13:55:15Z</time></trkpt>
<trkpt lat="47.38304615" lon="7.09897041"><ele></ele><time>2014-5-17T13:55:18Z</time></trkpt>
<trkpt lat="47.38272429" lon="7.09879875"><ele></ele><time>2014-5-17T13:55:21Z</time></trkpt>
<trkpt lat="47.38225222" lon="7.09847689"><ele></ele><time>2014-5-17T13:55:24Z</time></trkpt>
<trkpt lat="47.38199472" lon="7.09843397"><ele></ele><time>2014-5-17T13:55:27Z</time></trkpt>
<trkpt lat="47.38180161" lon="7.09843397"><ele></ele><time>2014-5-17T13:55:30Z</time></trkpt>
<trkpt lat="47.38096476" lon="7.09873438"><ele></ele><time>2014-5-17T13:55:33Z</time></trkpt>
<trkpt lat="47.38079309" lon="7.09894896"><ele></ele><time>2014-5-17T13:55:36Z</time></trkpt>
<trkpt lat="47.38062143" lon="7.09912062"><ele></ele><time>2014-5-17T13:55:39Z</time></trkpt>
<trkpt lat="47.38036394" lon="7.09931374"><ele></ele><time>2014-5-17T13:55:42Z</time></trkpt>
<trkpt lat="47.38004208" lon="7.09963560"><ele></ele><time>2014-5-17T13:55:45Z</time></trkpt>
<trkpt lat="47.37997770" lon="7.09972143"><ele></ele><time>2014-5-17T13:55:48Z</time></trkpt>
<trkpt lat="47.37982750" lon="7.10017204"><ele></ele><time>2014-5-17T13:55:51Z</time></trkpt>
<trkpt lat="47.37952709" lon="7.10049391"><ele></ele><time>2014-5-17T13:55:54Z</time></trkpt>
<trkpt lat="47.37922668" lon="7.10062265"><ele></ele><time>2014-5-17T13:55:57Z</time></trkpt>
<trkpt lat="47.37886190" lon="7.10047245"><ele></ele><time>2014-5-17T13:56:0Z</time></trkpt>
<trkpt lat="47.37866879" lon="7.10004330"><ele></ele><time>2014-5-17T13:56:3Z</time></trkpt>
<trkpt lat="47.37849712" lon="7.09952831"><ele></ele><time>2014-5-17T13:56:6Z</time></trkpt>
<trkpt lat="47.37843275" lon="7.09817648"><ele></ele><time>2014-5-17T13:56:9Z</time></trkpt>
<trkpt lat="47.37832546" lon="7.09744692"><ele></ele><time>2014-5-17T13:56:12Z</time></trkpt>
<trkpt lat="47.37811089" lon="7.09643841"><ele></ele><time>2014-5-17T13:56:15Z</time></trkpt>
<trkpt lat="47.37770319" lon="7.09538698"><ele></ele><time>2014-5-17T13:56:18Z</time></trkpt>
<trkpt lat="47.37757444" lon="7.09497929"><ele></ele><time>2014-5-17T13:56:21Z</time></trkpt>
<trkpt lat="47.37742424" lon="7.09420681"><ele></ele><time>2014-5-17T13:56:24Z</time></trkpt>
<trkpt lat="47.37720966" lon="7.09382057"><ele></ele><time>2014-5-17T13:56:27Z</time></trkpt>
<trkpt lat="47.37697363" lon="7.09349871"><ele></ele><time>2014-5-17T13:56:30Z</time></trkpt>
<trkpt lat="47.37650156" lon="7.09304810"><ele></ele><time>2014-5-17T13:56:33Z</time></trkpt>
<trkpt lat="47.37615824" lon="7.09289789"><ele></ele><time>2014-5-17T13:56:36Z</time></trkpt>
<trkpt lat="47.37564325" lon="7.09274769"><ele></ele><time>2014-5-17T13:56:39Z</time></trkpt>
<trkpt lat="47.37525702" lon="7.09255457"><ele></ele><time>2014-5-17T13:56:42Z</time></trkpt>
<trkpt lat="47.37472057" lon="7.09259748"><ele></ele><time>2014-5-17T13:56:45Z</time></trkpt>
<trkpt lat="47.37416267" lon="7.09203959"><ele></ele><time>2014-5-17T13:56:48Z</time></trkpt>
<trkpt lat="47.37399101" lon="7.09255457"><ele></ele><time>2014-5-17T13:56:51Z</time></trkpt>
<trkpt lat="47.37420559" lon="7.09289789"><ele></ele><time>2014-5-17T13:56:54Z</time></trkpt>
<trkpt lat="47.37457037" lon="7.09397078"><ele></ele><time>2014-5-17T13:56:57Z</time></trkpt>
<trkpt lat="47.37476349" lon="7.09467888"><ele></ele><time>2014-5-17T13:57:0Z</time></trkpt>
<trkpt lat="47.37487078" lon="7.09527969"><ele></ele><time>2014-5-17T13:57:3Z</time></trkpt>
<trkpt lat="47.37502098" lon="7.09581614"><ele></ele><time>2014-5-17T13:57:6Z</time></trkpt>
<trkpt lat="47.37506390" lon="7.09588051"><ele></ele><time>2014-5-17T13:57:9Z</time></trkpt>
<trkpt lat="47.37504244" lon="7.09645987"><ele></ele><time>2014-5-17T13:57:12Z</time></trkpt>
<trkpt lat="47.37506390" lon="7.09656715"><ele></ele><time>2014-5-17T13:57:15Z</time></trkpt>
<trkpt lat="47.37499952" lon="7.09723234"><ele></ele><time>2014-5-17T13:57:18Z</time></trkpt>
<trkpt lat="47.37482786" lon="7.09779024"><ele></ele><time>2014-5-17T13:57:21Z</time></trkpt>
<trkpt lat="47.37446308" lon="7.09845543"><ele></ele><time>2014-5-17T13:57:24Z</time></trkpt>
<trkpt lat="47.37403393" lon="7.09907770"><ele></ele><time>2014-5-17T13:57:27Z</time></trkpt>
<trkpt lat="47.37388372" lon="7.09935665"><ele></ele><time>2014-5-17T13:57:30Z</time></trkpt>
<trkpt lat="47.37388372" lon="7.09952831"><ele></ele><time>2014-5-17T13:57:33Z</time></trkpt>
<trkpt lat="47.37358332" lon="7.09963560"><ele></ele><time>2014-5-17T13:57:36Z</time></trkpt>
<trkpt lat="47.37345457" lon="7.09961414"><ele></ele><time>2014-5-17T13:57:39Z</time></trkpt>
<trkpt lat="47.37339020" lon="7.09869146"><ele></ele><time>2014-5-17T13:57:42Z</time></trkpt>
<trkpt lat="47.37341166" lon="7.09839106"><ele></ele><time>2014-5-17T13:57:45Z</time></trkpt>
<trkpt lat="47.37339020" lon="7.09798336"><ele></ele><time>2014-5-17T13:57:48Z</time></trkpt>
<trkpt lat="47.37319708" lon="7.09753275"><ele></ele><time>2014-5-17T13:57:51Z</time></trkpt>
<trkpt lat="47.37298250" lon="7.09682465"><ele></ele><time>2014-5-17T13:57:54Z</time></trkpt>
<trkpt lat="47.37289667" lon="7.09663153"><ele></ele><time>2014-5-17T13:57:57Z</time></trkpt>
<trkpt lat="47.37268209" lon="7.09676027"><ele></ele><time>2014-5-17T13:58:0Z</time></trkpt>
<trkpt lat="47.37242460" lon="7.09699631"><ele></ele><time>2014-5-17T13:58:3Z</time></trkpt>
<trkpt lat="47.37201691" lon="7.09740400"><ele></ele><time>2014-5-17T13:58:6Z</time></trkpt>
<trkpt lat="47.37171650" lon="7.09776878"><ele></ele><time>2014-5-17T13:58:9Z</time></trkpt>
<trkpt lat="47.37145901" lon="7.09836960"><ele></ele><time>2014-5-17T13:58:12Z</time></trkpt>
<trkpt lat="47.37135172" lon="7.09907770"><ele></ele><time>2014-5-17T13:58:15Z</time></trkpt>
<trkpt lat="47.37141609" lon="7.09989309"><ele></ele><time>2014-5-17T13:58:18Z</time></trkpt>
<trkpt lat="47.37137318" lon="7.10107327"><ele></ele><time>2014-5-17T13:58:21Z</time></trkpt>
<trkpt lat="47.37094402" lon="7.10427046"><ele></ele><time>2014-5-17T13:58:24Z</time></trkpt>
<trkpt lat="47.37100840" lon="7.10442066"><ele></ele><time>2014-5-17T13:58:27Z</time></trkpt>
<trkpt lat="47.37096548" lon="7.10448503"><ele></ele><time>2014-5-17T13:58:30Z</time></trkpt>
<trkpt lat="47.37094402" lon="7.10448503"><ele></ele><time>2014-5-17T13:58:33Z</time></trkpt>
<trkpt lat="47.37111568" lon="7.10369110"><ele></ele><time>2014-5-17T13:58:36Z</time></trkpt>
<trkpt lat="47.37087965" lon="7.10478544"><ele></ele><time>2014-5-17T13:58:39Z</time></trkpt>
<trkpt lat="47.37083673" lon="7.10510731"><ele></ele><time>2014-5-17T13:58:42Z</time></trkpt>
<trkpt lat="47.37077236" lon="7.10628748"><ele></ele><time>2014-5-17T13:58:45Z</time></trkpt>
<trkpt lat="47.37092257" lon="7.10673809"><ele></ele><time>2014-5-17T13:58:48Z</time></trkpt>
<trkpt lat="47.37107277" lon="7.10708141"><ele></ele><time>2014-5-17T13:58:51Z</time></trkpt>
<trkpt lat="47.37113714" lon="7.10716724"><ele></ele><time>2014-5-17T13:58:54Z</time></trkpt>
<trkpt lat="47.37130880" lon="7.10759640"><ele></ele><time>2014-5-17T13:58:57Z</time></trkpt>
<trkpt lat="47.37193108" lon="7.10933447"><ele></ele><time>2014-5-17T13:59:0Z</time></trkpt>
<trkpt lat="47.37197399" lon="7.10952759"><ele></ele><time>2014-5-17T13:59:3Z</time></trkpt>
<trkpt lat="47.37216711" lon="7.11120129"><ele></ele><time>2014-5-17T13:59:6Z</time></trkpt>
<trkpt lat="47.37227440" lon="7.11178064"><ele></ele><time>2014-5-17T13:59:9Z</time></trkpt>
<trkpt lat="47.37227440" lon="7.11199522"><ele></ele><time>2014-5-17T13:59:12Z</time></trkpt>
<trkpt lat="47.37240314" lon="7.11257458"><ele></ele><time>2014-5-17T13:59:15Z</time></trkpt>
<trkpt lat="47.37242460" lon="7.11291790"><ele></ele><time>2014-5-17T13:59:18Z</time></trkpt>
<trkpt lat="47.37240314" lon="7.11308956"><ele></ele><time>2014-5-17T13:59:21Z</time></trkpt>
<trkpt lat="47.37255335" lon="7.11362600"><ele></ele><time>2014-5-17T13:59:24Z</time></trkpt>
<trkpt lat="47.37272501" lon="7.11381912"><ele></ele><time>2014-5-17T13:59:27Z</time></trkpt>
<trkpt lat="47.37285376" lon="7.11388350"><ele></ele><time>2014-5-17T13:59:30Z</time></trkpt>
<trkpt lat="47.37296104" lon="7.11388350"><ele></ele><time>2014-5-17T13:59:33Z</time></trkpt>
<trkpt lat="47.37306833" lon="7.11416245"><ele></ele><time>2014-5-17T13:59:36Z</time></trkpt>
<trkpt lat="47.37332582" lon="7.11452723"><ele></ele><time>2014-5-17T13:59:39Z</time></trkpt>
<trkpt lat="47.37339020" lon="7.11469889"><ele></ele><time>2014-5-17T13:59:42Z</time></trkpt>
<trkpt lat="47.37358332" lon="7.11504221"><ele></ele><time>2014-5-17T13:59:45Z</time></trkpt>
<trkpt lat="47.37381935" lon="7.11594343"><ele></ele><time>2014-5-17T13:59:48Z</time></trkpt>
<trkpt lat="47.37394810" lon="7.11630821"><ele></ele><time>2014-5-17T13:59:51Z</time></trkpt>
<trkpt lat="47.37407684" lon="7.11686611"><ele></ele><time>2014-5-17T13:59:54Z</time></trkpt>
<trkpt lat="47.37555742" lon="7.11860418"><ele></ele><time>2014-5-17T13:59:57Z</time></trkpt>
<trkpt lat="47.37581491" lon="7.11899042"><ele></ele><time>2014-5-17T14:0:0Z</time></trkpt>
<trkpt lat="47.37594366" lon="7.11892605"><ele></ele><time>2014-5-17T14:0:3Z</time></trkpt>
<trkpt lat="47.37615824" lon="7.11845398"><ele></ele><time>2014-5-17T14:0:6Z</time></trkpt>
<trkpt lat="47.37613678" lon="7.11806774"><ele></ele><time>2014-5-17T14:0:9Z</time></trkpt>
<trkpt lat="47.37615824" lon="7.11804628"><ele></ele><time>2014-5-17T14:0:12Z</time></trkpt>
<trkpt lat="47.37632990" lon="7.11817503"><ele></ele><time>2014-5-17T14:0:15Z</time></trkpt>
<trkpt lat="47.37710238" lon="7.11832523"><ele></ele><time>2014-5-17T14:0:18Z</time></trkpt>
<trkpt lat="47.37748861" lon="7.11864710"><ele></ele><time>2014-5-17T14:0:21Z</time></trkpt>
<trkpt lat="47.37781048" lon="7.11871147"><ele></ele><time>2014-5-17T14:0:24Z</time></trkpt>
<trkpt lat="47.37836838" lon="7.11894751"><ele></ele><time>2014-5-17T14:0:27Z</time></trkpt>
<trkpt lat="47.37879753" lon="7.11907625"><ele></ele><time>2014-5-17T14:0:30Z</time></trkpt>
<trkpt lat="47.37914085" lon="7.11911917"><ele></ele><time>2014-5-17T14:0:33Z</time></trkpt>
<trkpt lat="47.37957001" lon="7.11929083"><ele></ele><time>2014-5-17T14:0:36Z</time></trkpt>
<trkpt lat="47.37997770" lon="7.12006330"><ele></ele><time>2014-5-17T14:0:39Z</time></trkpt>
<trkpt lat="47.38042831" lon="7.12077141"><ele></ele><time>2014-5-17T14:0:42Z</time></trkpt>
<trkpt lat="47.38117933" lon="7.12210178"><ele></ele><time>2014-5-17T14:0:45Z</time></trkpt>
<trkpt lat="47.38150120" lon="7.12437630"><ele></ele><time>2014-5-17T14:0:48Z</time></trkpt>
<trkpt lat="47.38180161" lon="7.12411880"><ele></ele><time>2014-5-17T14:0:51Z</time></trkpt>
<trkpt lat="47.38240242" lon="7.12409735"><ele></ele><time>2014-5-17T14:0:54Z</time></trkpt>
<trkpt lat="47.38281012" lon="7.12390423"><ele></ele><time>2014-5-17T14:0:57Z</time></trkpt>
<trkpt lat="47.38300323" lon="7.12399006"><ele></ele><time>2014-5-17T14:1:0Z</time></trkpt>
<trkpt lat="47.38328218" lon="7.12418318"><ele></ele><time>2014-5-17T14:1:3Z</time></trkpt>
<trkpt lat="47.38366842" lon="7.12517023"><ele></ele><time>2014-5-17T14:1:6Z</time></trkpt>
<trkpt lat="47.38497734" lon="7.12703705"><ele></ele><time>2014-5-17T14:1:9Z</time></trkpt>
<trkpt lat="47.38572836" lon="7.12828159"><ele></ele><time>2014-5-17T14:1:12Z</time></trkpt>
<trkpt lat="47.38613605" lon="7.12913990"><ele></ele><time>2014-5-17T14:1:15Z</time></trkpt>
<trkpt lat="47.38613605" lon="7.12954760"><ele></ele><time>2014-5-17T14:1:18Z</time></trkpt>
<trkpt lat="47.38624334" lon="7.13051319"><ele></ele><time>2014-5-17T14:1:21Z</time></trkpt>
<trkpt lat="47.38662958" lon="7.13165045"><ele></ele><time>2014-5-17T14:1:24Z</time></trkpt>
<trkpt lat="47.38768101" lon="7.13386059"><ele></ele><time>2014-5-17T14:1:27Z</time></trkpt>
<trkpt lat="47.38780975" lon="7.13426828"><ele></ele><time>2014-5-17T14:1:30Z</time></trkpt>
<trkpt lat="47.38806725" lon="7.13476181"><ele></ele><time>2014-5-17T14:1:33Z</time></trkpt>
<trkpt lat="47.38808870" lon="7.13499784"><ele></ele><time>2014-5-17T14:1:36Z</time></trkpt>
<trkpt lat="47.38802433" lon="7.13510513"><ele></ele><time>2014-5-17T14:1:39Z</time></trkpt>
<trkpt lat="47.38772392" lon="7.13525534"><ele></ele><time>2014-5-17T14:1:42Z</time></trkpt>
<trkpt lat="47.38480568" lon="7.13600636"><ele></ele><time>2014-5-17T14:1:45Z</time></trkpt>
<trkpt lat="47.38572836" lon="7.13828087"><ele></ele><time>2014-5-17T14:1:48Z</time></trkpt>
<trkpt lat="47.38555670" lon="7.13780880"><ele></ele><time>2014-5-17T14:1:51Z</time></trkpt>
<trkpt lat="47.38542795" lon="7.13828087"><ele></ele><time>2014-5-17T14:1:54Z</time></trkpt>
<trkpt lat="47.38467693" lon="7.13905334"><ele></ele><time>2014-5-17T14:1:57Z</time></trkpt>
<trkpt lat="47.38450527" lon="7.13926792"><ele></ele><time>2014-5-17T14:2:0Z</time></trkpt>
<trkpt lat="47.38450527" lon="7.13971853"><ele></ele><time>2014-5-17T14:2:3Z</time></trkpt>
<trkpt lat="47.38469839" lon="7.13978291"><ele></ele><time>2014-5-17T14:2:6Z</time></trkpt>
<trkpt lat="47.38497734" lon="7.13961124"><ele></ele><time>2014-5-17T14:2:9Z</time></trkpt>
<trkpt lat="47.38547087" lon="7.13901043"><ele></ele><time>2014-5-17T14:2:12Z</time></trkpt>
<trkpt lat="47.38581419" lon="7.13886023"><ele></ele><time>2014-5-17T14:2:15Z</time></trkpt>
<trkpt lat="47.38780975" lon="7.13825941"><ele></ele><time>2014-5-17T14:2:18Z</time></trkpt>
<trkpt lat="47.38811016" lon="7.13845253"><ele></ele><time>2014-5-17T14:2:21Z</time></trkpt>
<trkpt lat="47.38838911" lon="7.13855982"><ele></ele><time>2014-5-17T14:2:24Z</time></trkpt>
<trkpt lat="47.39059925" lon="7.13886023"><ele></ele><time>2014-5-17T14:2:27Z</time></trkpt>
<trkpt lat="47.39083529" lon="7.13898897"><ele></ele><time>2014-5-17T14:2:30Z</time></trkpt>
<trkpt lat="47.39156485" lon="7.13860273"><ele></ele><time>2014-5-17T14:2:33Z</time></trkpt>
<trkpt lat="47.39274502" lon="7.13855982"><ele></ele><time>2014-5-17T14:2:36Z</time></trkpt>
<trkpt lat="47.39310980" lon="7.13860273"><ele></ele><time>2014-5-17T14:2:39Z</time></trkpt>
<trkpt lat="47.39334583" lon="7.13855982"><ele></ele><time>2014-5-17T14:2:42Z</time></trkpt>
<trkpt lat="47.39390373" lon="7.13830233"><ele></ele><time>2014-5-17T14:2:45Z</time></trkpt>
<trkpt lat="47.39459038" lon="7.13821650"><ele></ele><time>2014-5-17T14:2:48Z</time></trkpt>
<trkpt lat="47.39463329" lon="7.13800192"><ele></ele><time>2014-5-17T14:2:51Z</time></trkpt>
<trkpt lat="47.39452600" lon="7.13761568"><ele></ele><time>2014-5-17T14:2:54Z</time></trkpt>
<trkpt lat="47.39439726" lon="7.13740110"><ele></ele><time>2014-5-17T14:2:57Z</time></trkpt>
<trkpt lat="47.39405394" lon="7.13703632"><ele></ele><time>2014-5-17T14:3:0Z</time></trkpt>
<trkpt lat="47.39330292" lon="7.13649988"><ele></ele><time>2014-5-17T14:3:3Z</time></trkpt>
<trkpt lat="47.39304543" lon="7.13607073"><ele></ele><time>2014-5-17T14:3:6Z</time></trkpt>
<trkpt lat="47.39293814" lon="7.13553429"><ele></ele><time>2014-5-17T14:3:9Z</time></trkpt>
<trkpt lat="47.39257336" lon="7.13495493"><ele></ele><time>2014-5-17T14:3:12Z</time></trkpt>
<trkpt lat="47.39244461" lon="7.13428974"><ele></ele><time>2014-5-17T14:3:15Z</time></trkpt>
<trkpt lat="47.39253044" lon="7.13394642"><ele></ele><time>2014-5-17T14:3:18Z</time></trkpt>
<trkpt lat="47.39274502" lon="7.13276625"><ele></ele><time>2014-5-17T14:3:21Z</time></trkpt>
<trkpt lat="47.39289522" lon="7.13231564"><ele></ele><time>2014-5-17T14:3:24Z</time></trkpt>
<trkpt lat="47.39293814" lon="7.13169336"><ele></ele><time>2014-5-17T14:3:27Z</time></trkpt>
<trkpt lat="47.39259481" lon="7.13126421"><ele></ele><time>2014-5-17T14:3:30Z</time></trkpt>
<trkpt lat="47.39248753" lon="7.13098526"><ele></ele><time>2014-5-17T14:3:33Z</time></trkpt>
<trkpt lat="47.39259481" lon="7.13068485"><ele></ele><time>2014-5-17T14:3:36Z</time></trkpt>
<trkpt lat="47.39306688" lon="7.13049173"><ele></ele><time>2014-5-17T14:3:39Z</time></trkpt>
<trkpt lat="47.39332438" lon="7.13019133"><ele></ele><time>2014-5-17T14:3:42Z</time></trkpt>
<trkpt lat="47.39381790" lon="7.12913990"><ele></ele><time>2014-5-17T14:3:45Z</time></trkpt>
<trkpt lat="47.39426851" lon="7.12800264"><ele></ele><time>2014-5-17T14:3:48Z</time></trkpt>
<trkpt lat="47.39491224" lon="7.12686539"><ele></ele><time>2014-5-17T14:3:51Z</time></trkpt>
<trkpt lat="47.39525557" lon="7.12609291"><ele></ele><time>2014-5-17T14:3:54Z</time></trkpt>
<trkpt lat="47.39547014" lon="7.12572813"><ele></ele><time>2014-5-17T14:3:57Z</time></trkpt>
<trkpt lat="47.39583492" lon="7.12577105"><ele></ele><time>2014-5-17T14:4:0Z</time></trkpt>
<trkpt lat="47.39600658" lon="7.12559938"><ele></ele><time>2014-5-17T14:4:3Z</time></trkpt>
<trkpt lat="47.39628553" lon="7.12452650"><ele></ele><time>2014-5-17T14:4:6Z</time></trkpt>
<trkpt lat="47.39650011" lon="7.12411880"><ele></ele><time>2014-5-17T14:4:9Z</time></trkpt>
<trkpt lat="47.39712238" lon="7.12351799"><ele></ele><time>2014-5-17T14:4:12Z</time></trkpt>
<trkpt lat="47.39731550" lon="7.12356091"><ele></ele><time>2014-5-17T14:4:15Z</time></trkpt>
<trkpt lat="47.39761591" lon="7.12381840"><ele></ele><time>2014-5-17T14:4:18Z</time></trkpt>
<trkpt lat="47.39795923" lon="7.12375402"><ele></ele><time>2014-5-17T14:4:21Z</time></trkpt>
<trkpt lat="47.39847422" lon="7.12263823"><ele></ele><time>2014-5-17T14:4:24Z</time></trkpt>
<trkpt lat="47.39903212" lon="7.12182283"><ele></ele><time>2014-5-17T14:4:27Z</time></trkpt>
<trkpt lat="47.39989042" lon="7.12107182"><ele></ele><time>2014-5-17T14:4:30Z</time></trkpt>
<trkpt lat="47.40070581" lon="7.12072849"><ele></ele><time>2014-5-17T14:4:33Z</time></trkpt>
<trkpt lat="47.40175724" lon="7.12064266"><ele></ele><time>2014-5-17T14:4:36Z</time></trkpt>
<trkpt lat="47.40195036" lon="7.12066412"><ele></ele><time>2014-5-17T14:4:39Z</time></trkpt>
<trkpt lat="47.40205765" lon="7.12034225"><ele></ele><time>2014-5-17T14:4:42Z</time></trkpt>
<trkpt lat="47.40152121" lon="7.11871147"><ele></ele><time>2014-5-17T14:4:45Z</time></trkpt>
<trkpt lat="47.40134954" lon="7.11791754"><ele></ele><time>2014-5-17T14:4:48Z</time></trkpt>
<trkpt lat="47.40141392" lon="7.11748838"><ele></ele><time>2014-5-17T14:4:51Z</time></trkpt>
<trkpt lat="47.40164995" lon="7.11663008"><ele></ele><time>2014-5-17T14:4:54Z</time></trkpt>
<trkpt lat="47.40158558" lon="7.11617947"><ele></ele><time>2014-5-17T14:4:57Z</time></trkpt>
<trkpt lat="47.40154266" lon="7.11609364"><ele></ele><time>2014-5-17T14:5:0Z</time></trkpt>
<trkpt lat="47.40164995" lon="7.11598635"><ele></ele><time>2014-5-17T14:5:3Z</time></trkpt>
<trkpt lat="47.40184307" lon="7.11587906"><ele></ele><time>2014-5-17T14:5:6Z</time></trkpt>
<trkpt lat="47.40207911" lon="7.11585760"><ele></ele><time>2014-5-17T14:5:9Z</time></trkpt>
<trkpt lat="47.40197182" lon="7.11512804"><ele></ele><time>2014-5-17T14:5:12Z</time></trkpt>
<trkpt lat="47.40203619" lon="7.11465597"><ele></ele><time>2014-5-17T14:5:15Z</time></trkpt>
<trkpt lat="47.40214348" lon="7.11439848"><ele></ele><time>2014-5-17T14:5:18Z</time></trkpt>
<trkpt lat="47.40227222" lon="7.11420536"><ele></ele><time>2014-5-17T14:5:21Z</time></trkpt>
<trkpt lat="47.40244389" lon="7.11407661"><ele></ele><time>2014-5-17T14:5:24Z</time></trkpt>
<trkpt lat="47.40272284" lon="7.11399078"><ele></ele><time>2014-5-17T14:5:27Z</time></trkpt>
<trkpt lat="47.40298033" lon="7.11360455"><ele></ele><time>2014-5-17T14:5:30Z</time></trkpt>
<trkpt lat="47.40426779" lon="7.10858345"><ele></ele><time>2014-5-17T14:5:33Z</time></trkpt>
<trkpt lat="47.40484715" lon="7.10615873"><ele></ele><time>2014-5-17T14:5:36Z</time></trkpt>
<trkpt lat="47.40501881" lon="7.10557938"><ele></ele><time>2014-5-17T14:5:39Z</time></trkpt>
<trkpt lat="47.40525484" lon="7.10532188"><ele></ele><time>2014-5-17T14:5:42Z</time></trkpt>
<trkpt lat="47.40553379" lon="7.10493565"><ele></ele><time>2014-5-17T14:5:45Z</time></trkpt>
<trkpt lat="47.40564108" lon="7.10463524"><ele></ele><time>2014-5-17T14:5:48Z</time></trkpt>
<trkpt lat="47.40557671" lon="7.10392714"><ele></ele><time>2014-5-17T14:5:51Z</time></trkpt>
<trkpt lat="47.40516901" lon="7.10315466"><ele></ele><time>2014-5-17T14:5:54Z</time></trkpt>
<trkpt lat="47.40486860" lon="7.10191011"><ele></ele><time>2014-5-17T14:5:57Z</time></trkpt>
<trkpt lat="47.40510464" lon="7.10105181"><ele></ele><time>2014-5-17T14:6:0Z</time></trkpt>
<trkpt lat="47.40523338" lon="7.09963560"><ele></ele><time>2014-5-17T14:6:3Z</time></trkpt>
<trkpt lat="47.40527630" lon="7.09899187"><ele></ele><time>2014-5-17T14:6:6Z</time></trkpt>
<trkpt lat="47.40523338" lon="7.09802628"><ele></ele><time>2014-5-17T14:6:9Z</time></trkpt>
<trkpt lat="47.40523338" lon="7.09703922"><ele></ele><time>2014-5-17T14:6:12Z</time></trkpt>
<trkpt lat="47.40529776" lon="7.09540844"><ele></ele><time>2014-5-17T14:6:15Z</time></trkpt>
<trkpt lat="47.40529776" lon="7.09452868"><ele></ele><time>2014-5-17T14:6:18Z</time></trkpt>
<trkpt lat="47.40540504" lon="7.09345579"><ele></ele><time>2014-5-17T14:6:21Z</time></trkpt>
<trkpt lat="47.40555525" lon="7.09255457"><ele></ele><time>2014-5-17T14:6:24Z</time></trkpt>
<trkpt lat="47.40568399" lon="7.09139585"><ele></ele><time>2014-5-17T14:6:27Z</time></trkpt>
<trkpt lat="47.40561962" lon="7.08987236"><ele></ele><time>2014-5-17T14:6:30Z</time></trkpt>
<trkpt lat="47.40519047" lon="7.08663225"><ele></ele><time>2014-5-17T14:6:33Z</time></trkpt>
<trkpt lat="47.40510464" lon="7.08579540"><ele></ele><time>2014-5-17T14:6:36Z</time></trkpt>
<trkpt lat="47.40508318" lon="7.08410025"><ele></ele><time>2014-5-17T14:6:39Z</time></trkpt>
<trkpt lat="47.40536213" lon="7.08274841"><ele></ele><time>2014-5-17T14:6:42Z</time></trkpt>
<trkpt lat="47.40531921" lon="7.08199739"><ele></ele><time>2014-5-17T14:6:45Z</time></trkpt>
<trkpt lat="47.40504026" lon="7.08133221"><ele></ele><time>2014-5-17T14:6:48Z</time></trkpt>
<trkpt lat="47.40486860" lon="7.08101034"><ele></ele><time>2014-5-17T14:6:51Z</time></trkpt>
<trkpt lat="47.40473986" lon="7.08049536"><ele></ele><time>2014-5-17T14:6:54Z</time></trkpt>
<trkpt lat="47.40471840" lon="7.08021641"><ele></ele><time>2014-5-17T14:6:57Z</time></trkpt>
<trkpt lat="47.40456820" lon="7.08002329"><ele></ele><time>2014-5-17T14:7:0Z</time></trkpt>
<trkpt lat="47.40450382" lon="7.08002329"><ele></ele><time>2014-5-17T14:7:3Z</time></trkpt>
<trkpt lat="47.40448236" lon="7.07998037"><ele></ele><time>2014-5-17T14:7:6Z</time></trkpt>
<trkpt lat="47.40456820" lon="7.07995892"><ele></ele><time>2014-5-17T14:7:9Z</time></trkpt>
<trkpt lat="47.40458965" lon="7.07983017"><ele></ele><time>2014-5-17T14:7:12Z</time></trkpt>
<trkpt lat="47.40456820" lon="7.07987309"><ele></ele><time>2014-5-17T14:7:15Z</time></trkpt>
</trkseg></trk></gpx>